Time;durP1;ratioP1;P1;durP2;ratioP2;P2;SDS_P1;SDS_P2;PMS_P1;PMS_P2;Temp;Humidity;BMP_temperature;BMP_pressure;BME280_temperature;BME280_humidity;BME280_pressure;Samples;Min_cycle;Max_cycle;Signal;HPM_P1;HPM_P2
2024/01/06 00:01:19;;;;;;;10.57;4.80;;;;;;;4.24;76.59;94535.69;5090675;28;20028;-66
2024/01/06 00:03:45;;;;;;;15.07;7.90;;;;;;;4.27;76.12;94555.25;5090509;28;20032;-66
2024/01/06 00:06:13;;;;;;;16.42;10.10;;;;;;;4.23;76.06;94559.75;5072100;28;20039;-66
2024/01/06 00:08:39;;;;;;;11.13;6.45;;;;;;;4.28;76.47;94551.75;5053792;28;20044;-67
2024/01/06 00:11:04;;;;;;;10.30;5.45;;;;;;;4.25;77.34;94527.03;5070126;28;20382;-66
2024/01/06 00:13:30;;;;;;;7.57;4.45;;;;;;;4.37;77.99;94557.13;5086600;28;20626;-66
2024/01/06 00:15:55;;;;;;;9.52;5.10;;;;;;;4.38;77.68;94558.78;5090114;28;20469;-66
2024/01/06 00:18:20;;;;;;;9.10;5.63;;;;;;;4.50;76.70;94538.38;5090262;28;20032;-66
2024/01/06 00:20:46;;;;;;;9.50;5.25;;;;;;;4.34;77.65;94534.19;5091612;28;20028;-66
2024/01/06 00:23:11;;;;;;;9.95;5.25;;;;;;;4.30;78.12;94560.19;5091442;28;20481;-66
2024/01/06 00:25:37;;;;;;;7.85;4.50;;;;;;;4.35;77.65;94538.41;5061218;28;20024;-66
2024/01/06 00:28:02;;;;;;;7.85;4.57;;;;;;;4.36;77.56;94550.34;5069806;28;20047;-66
2024/01/06 00:30:27;;;;;;;7.38;4.20;;;;;;;4.36;76.74;94568.34;5069841;28;20387;-66
2024/01/06 00:32:53;;;;;;;9.13;4.88;;;;;;;4.40;75.59;94546.69;5070602;28;20032;-66
2024/01/06 00:35:18;;;;;;;14.70;7.75;;;;;;;4.34;75.52;94538.50;5087010;28;20465;-66
2024/01/06 00:37:44;;;;;;;11.75;6.50;;;;;;;4.36;75.76;94552.91;5089988;28;20043;-66
2024/01/06 00:40:09;;;;;;;12.65;5.65;;;;;;;4.28;76.09;94573.13;5091360;28;20035;-66
2024/01/06 00:42:35;;;;;;;10.60;5.07;;;;;;;4.55;77.10;94585.22;5088203;28;20035;-67
2024/01/06 00:45:00;;;;;;;31.60;16.30;;;;;;;4.30;75.76;94573.88;5089997;28;20538;-66
2024/01/06 00:47:26;;;;;;;20.83;12.68;;;;;;;4.25;75.45;94576.72;5089767;28;20405;-66
2024/01/06 00:49:51;;;;;;;14.02;8.88;;;;;;;4.20;75.59;94570.22;5091005;28;20035;-66
2024/01/06 00:52:16;;;;;;;13.20;7.65;;;;;;;4.12;75.92;94562.16;5089398;28;20489;-66
2024/01/06 00:54:42;;;;;;;13.30;8.20;;;;;;;4.03;76.75;94566.09;5072787;28;20036;-66
2024/01/06 00:57:07;;;;;;;10.00;6.43;;;;;;;4.23;76.27;94562.31;5056317;28;20059;-66
2024/01/06 00:59:33;;;;;;;20.58;12.32;;;;;;;3.95;76.15;94560.59;5089619;28;20028;-66
2024/01/06 01:01:58;;;;;;;19.02;9.23;;;;;;;3.88;76.47;94565.31;5088475;28;20032;-66
2024/01/06 01:04:24;;;;;;;12.27;7.57;;;;;;;4.02;76.65;94565.28;5089565;28;20074;-66
2024/01/06 01:06:49;;;;;;;15.15;8.40;;;;;;;4.13;76.71;94556.09;5089462;28;20417;-66
2024/01/06 01:09:14;;;;;;;10.82;6.20;;;;;;;3.96;77.27;94568.25;5090835;28;20020;-66
2024/01/06 01:11:40;;;;;;;7.63;4.85;;;;;;;3.94;77.92;94548.69;5072322;28;20037;-67
2024/01/06 01:14:06;;;;;;;6.32;3.70;;;;;;;3.86;78.51;94546.56;5089594;28;20604;-66
2024/01/06 01:16:34;;;;;;;12.43;4.70;;;;;;;3.72;78.30;94541.44;5090559;28;20040;-66
2024/01/06 01:19:01;;;;;;;13.57;7.20;;;;;;;3.81;77.74;94546.84;5089136;28;20028;-66
2024/01/06 01:21:27;;;;;;;9.63;5.80;;;;;;;4.01;77.48;94552.50;5073220;28;20304;-66
2024/01/06 01:23:52;;;;;;;13.23;6.47;;;;;;;3.89;76.94;94536.09;5072629;28;20485;-67
2024/01/06 01:26:18;;;;;;;15.45;8.05;;;;;;;3.92;76.80;94542.81;5072387;28;20134;-66
2024/01/06 01:28:43;;;;;;;18.65;11.77;;;;;;;3.95;76.58;94545.19;5062534;28;20040;-66
2024/01/06 01:31:09;;;;;;;15.07;9.50;;;;;;;3.90;76.96;94540.34;5070746;28;20043;-66
2024/01/06 01:33:34;;;;;;;9.52;5.88;;;;;;;3.80;77.58;94539.25;5069405;28;20098;-66
2024/01/06 01:35:59;;;;;;;7.03;4.07;;;;;;;3.92;76.03;94541.06;5069123;28;20040;-67
2024/01/06 01:38:25;;;;;;;5.80;4.03;;;;;;;3.94;77.06;94533.25;5084410;28;20043;-66
2024/01/06 01:40:50;;;;;;;6.03;3.65;;;;;;;3.86;77.09;94510.59;5090375;28;20032;-66
2024/01/06 01:43:19;;;;;;;8.18;3.97;;;;;;;3.84;76.37;94519.31;5090513;28;20415;-66
2024/01/06 01:45:45;;;;;;;5.60;3.72;;;;;;;3.92;76.08;94512.78;5091051;28;20027;-66
2024/01/06 01:48:11;;;;;;;7.15;4.28;;;;;;;4.00;74.21;94518.28;5093091;28;20035;-67
2024/01/06 01:50:36;;;;;;;7.70;4.53;;;;;;;3.95;73.70;94507.44;5094429;28;20489;-66
2024/01/06 01:53:01;;;;;;;7.43;4.70;;;;;;;3.98;73.83;94499.56;5076127;28;20077;-66
2024/01/06 01:55:27;;;;;;;7.45;4.60;;;;;;;4.25;72.72;94511.63;5074807;28;20044;-66
2024/01/06 01:57:52;;;;;;;7.15;4.80;;;;;;;4.31;72.57;94508.66;5076075;28;20028;-66
2024/01/06 02:00:18;;;;;;;10.50;6.38;;;;;;;4.24;72.84;94513.38;5092736;28;20516;-66
2024/01/06 02:02:43;;;;;;;12.65;7.18;;;;;;;4.28;72.77;94508.84;5075908;28;20038;-66
2024/01/06 02:05:09;;;;;;;9.43;6.13;;;;;;;4.24;73.50;94503.09;5092405;28;20031;-66
2024/01/06 02:07:34;;;;;;;8.25;5.10;;;;;;;4.17;73.14;94506.13;5093882;28;20028;-66
2024/01/06 02:09:59;;;;;;;9.75;5.30;;;;;;;4.21;73.14;94512.75;5092673;28;20050;-67
2024/01/06 02:12:25;;;;;;;9.27;6.15;;;;;;;4.05;73.89;94509.47;5068277;28;20436;-66
2024/01/06 02:14:50;;;;;;;19.50;11.13;;;;;;;4.17;73.93;94509.53;5068144;28;20028;-66
2024/01/06 02:17:16;;;;;;;17.83;11.88;;;;;;;3.99;75.55;94501.22;5072399;28;20032;-66
2024/01/06 02:19:41;;;;;;;13.98;9.23;;;;;;;4.10;74.72;94481.75;5073454;28;20406;-66
2024/01/06 02:22:07;;;;;;;15.00;9.27;;;;;;;4.32;74.36;94488.91;5073565;28;20040;-66
2024/01/06 02:24:32;;;;;;;13.02;8.85;;;;;;;4.19;74.56;94487.13;5093679;28;20020;-66
2024/01/06 02:26:57;;;;;;;9.32;6.90;;;;;;;4.41;74.77;94486.59;5092253;28;20054;-66
2024/01/06 02:29:23;;;;;;;11.23;6.82;;;;;;;4.54;75.14;94491.78;5093527;28;20035;-66
2024/01/06 02:31:48;;;;;;;15.15;7.65;;;;;;;4.35;74.98;94476.69;5091759;28;20036;-66
2024/01/06 02:34:14;;;;;;;10.73;6.43;;;;;;;4.30;76.22;94457.34;5092295;28;20024;-66
2024/01/06 02:36:39;;;;;;;10.50;5.78;;;;;;;4.30;75.61;94463.28;5093851;28;20413;-66
2024/01/06 02:39:05;;;;;;;9.13;6.25;;;;;;;4.18;76.02;94467.47;5093366;28;20020;-66
2024/01/06 02:41:30;;;;;;;9.15;6.10;;;;;;;4.18;76.67;94456.34;5090815;28;20035;-66
2024/01/06 02:43:58;;;;;;;9.10;5.88;;;;;;;4.31;75.76;94462.38;5093293;28;20028;-66
2024/01/06 02:46:23;;;;;;;10.07;6.35;;;;;;;4.10;76.04;94456.84;5093570;28;20032;-66
2024/01/06 02:48:49;;;;;;;10.10;6.00;;;;;;;3.97;76.01;94451.66;5093199;28;20027;-66
2024/01/06 02:51:14;;;;;;;10.40;5.97;;;;;;;3.97;75.55;94461.09;5091720;28;20035;-66
2024/01/06 02:53:40;;;;;;;9.40;5.72;;;;;;;4.14;74.14;94463.44;5091864;28;20024;-66
2024/01/06 02:56:09;;;;;;;9.25;5.90;;;;;;;4.08;74.32;94463.81;5092560;28;20055;-66
2024/01/06 02:58:35;;;;;;;8.70;5.97;;;;;;;4.14;73.82;94447.19;5090207;28;20049;-66
2024/01/06 03:01:00;;;;;;;9.77;5.90;;;;;;;4.11;73.64;94457.66;5093266;28;20027;-66
2024/01/06 03:03:26;;;;;;;10.73;6.30;;;;;;;4.18;73.63;94444.34;5091597;28;20032;-66
2024/01/06 03:05:51;;;;;;;9.23;5.60;;;;;;;4.25;72.96;94439.63;5093011;28;20450;-66
2024/01/06 03:08:16;;;;;;;8.65;5.75;;;;;;;4.33;73.30;94446.84;5090648;28;20082;-66
2024/01/06 03:10:43;;;;;;;9.30;5.95;;;;;;;4.37;74.82;94428.53;5091588;28;20028;-66
2024/01/06 03:13:08;;;;;;;14.18;6.45;;;;;;;4.25;73.47;94424.19;5077958;28;20041;-66
2024/01/06 03:15:34;;;;;;;11.02;6.55;;;;;;;4.24;72.66;94417.41;5071188;28;20033;-66
2024/01/06 03:17:59;;;;;;;9.82;6.30;;;;;;;4.28;72.76;94428.31;5085431;28;20565;-66
2024/01/06 03:20:24;;;;;;;11.50;6.38;;;;;;;3.97;73.39;94415.66;5091311;28;20032;-66
2024/01/06 03:22:50;;;;;;;8.20;5.32;;;;;;;4.17;73.41;94432.38;5092773;28;20020;-66
2024/01/06 03:25:15;;;;;;;9.05;6.38;;;;;;;4.02;73.13;94431.63;5091142;28;20479;-66
2024/01/06 03:27:40;;;;;;;10.38;6.07;;;;;;;3.99;73.06;94431.81;5069730;28;20033;-66
2024/01/06 03:30:06;;;;;;;10.30;6.57;;;;;;;3.86;73.17;94422.41;5054182;28;20043;-66
2024/01/06 03:32:32;;;;;;;9.50;6.15;;;;;;;3.84;73.54;94419.09;5070772;28;20033;-66
2024/01/06 03:34:57;;;;;;;10.88;6.35;;;;;;;3.91;73.02;94423.75;5074218;28;20027;-66
2024/01/06 03:37:23;;;;;;;9.48;6.13;;;;;;;3.74;73.34;94426.56;5091018;28;20043;-66
2024/01/06 03:39:48;;;;;;;10.15;6.50;;;;;;;3.85;72.79;94425.91;5090820;28;20085;-66
2024/01/06 03:42:14;;;;;;;10.73;5.55;;;;;;;3.94;72.58;94430.47;5090916;28;20486;-66
2024/01/06 03:44:42;;;;;;;11.70;6.10;;;;;;;3.89;72.77;94422.22;5072960;28;20028;-66
2024/01/06 03:47:07;;;;;;;9.15;6.03;;;;;;;3.87;72.83;94414.59;5057502;28;20205;-67
2024/01/06 03:49:33;;;;;;;8.60;5.82;;;;;;;3.84;72.69;94414.78;5073859;28;20028;-66
2024/01/06 03:51:58;;;;;;;8.00;5.75;;;;;;;3.97;72.51;94420.81;5090626;28;20032;-66
2024/01/06 03:54:24;;;;;;;8.25;5.25;;;;;;;3.71;73.19;94403.66;5089604;28;20028;-66
2024/01/06 03:56:49;;;;;;;11.25;5.38;;;;;;;3.83;72.93;94414.88;5091882;28;20071;-66
2024/01/06 03:59:15;;;;;;;8.70;5.30;;;;;;;3.88;72.85;94411.09;5090703;28;20024;-67
2024/01/06 04:01:40;;;;;;;10.20;5.97;;;;;;;3.84;72.54;94399.34;5072374;28;20020;-67
2024/01/06 04:04:07;;;;;;;9.10;5.72;;;;;;;3.71;73.46;94391.63;5090331;28;20032;-66
2024/01/06 04:06:32;;;;;;;9.07;4.95;;;;;;;3.73;73.18;94399.22;5090568;28;20028;-66
2024/01/06 04:08:58;;;;;;;8.68;5.28;;;;;;;3.83;72.43;94402.88;5090919;28;20028;-68
2024/01/06 04:11:23;;;;;;;8.23;4.75;;;;;;;3.96;74.23;94418.34;5066895;28;20024;-66
2024/01/06 04:13:49;;;;;;;7.53;4.97;;;;;;;3.92;72.46;94407.41;5057940;28;20016;-66
2024/01/06 04:16:14;;;;;;;8.98;5.43;;;;;;;3.96;71.67;94408.88;5082014;28;20032;-66
2024/01/06 04:18:39;;;;;;;8.15;4.97;;;;;;;3.77;73.21;94408.38;5084616;28;20032;-66
2024/01/06 04:21:05;;;;;;;8.68;4.95;;;;;;;3.83;72.56;94407.19;5083637;28;20042;-67
2024/01/06 04:23:31;;;;;;;7.90;5.10;;;;;;;3.81;72.15;94412.41;5082195;28;20501;-65
2024/01/06 04:25:56;;;;;;;7.35;4.72;;;;;;;3.85;72.41;94407.91;5081825;28;20039;-65
2024/01/06 04:28:21;;;;;;;7.70;5.10;;;;;;;3.83;72.08;94405.44;5084716;28;20032;-65
2024/01/06 04:30:47;;;;;;;6.75;4.63;;;;;;;3.94;72.02;94410.72;5083779;28;20089;-66
2024/01/06 04:33:12;;;;;;;8.88;5.65;;;;;;;3.81;72.17;94417.53;5082185;28;20032;-66
2024/01/06 04:35:38;;;;;;;9.90;5.90;;;;;;;3.84;71.88;94427.63;5077893;28;21229;-67
2024/01/06 04:38:03;;;;;;;17.92;9.70;;;;;;;3.65;73.62;94434.81;5079359;28;20035;-67
2024/01/06 04:40:28;;;;;;;14.00;8.73;;;;;;;3.66;73.70;94442.44;5080729;28;20044;-67
2024/01/06 04:42:54;;;;;;;18.38;9.90;;;;;;;3.66;74.01;94429.59;5065561;28;20188;-67
2024/01/06 04:45:19;;;;;;;20.08;12.50;;;;;;;3.74;73.41;94429.13;5082563;28;20036;-67
2024/01/06 04:47:45;;;;;;;15.38;9.23;;;;;;;3.72;73.50;94436.94;5079876;28;20028;-67
2024/01/06 04:50:10;;;;;;;16.75;9.55;;;;;;;3.73;73.41;94435.19;5083246;28;20043;-68
2024/01/06 04:52:36;;;;;;;14.02;8.13;;;;;;;3.77;72.80;94429.75;5079761;28;20036;-67
2024/01/06 04:55:02;;;;;;;13.52;8.40;;;;;;;3.57;73.69;94432.75;5060854;28;20036;-67
2024/01/06 04:57:27;;;;;;;10.13;7.28;;;;;;;3.61;73.90;94433.38;5085756;28;20035;-68
2024/01/06 04:59:52;;;;;;;13.13;7.60;;;;;;;3.55;73.86;94432.84;5081809;28;20440;-67
2024/01/06 05:02:18;;;;;;;10.07;6.65;;;;;;;3.79;74.50;94434.81;5079638;28;20062;-67
2024/01/06 05:04:43;;;;;;;9.90;5.43;;;;;;;3.49;75.64;94438.34;5068276;28;20497;-68
2024/01/06 05:07:09;;;;;;;8.70;5.85;;;;;;;3.47;76.16;94434.22;5082368;28;20429;-67
2024/01/06 05:09:34;;;;;;;11.20;6.78;;;;;;;3.29;75.17;94423.34;5085228;28;20021;-66
2024/01/06 05:12:00;;;;;;;7.13;4.53;;;;;;;3.32;73.97;94408.56;5082087;28;20036;-66
2024/01/06 05:14:25;;;;;;;9.95;5.30;;;;;;;3.43;73.71;94417.38;5083866;28;20028;-66
2024/01/06 05:16:51;;;;;;;7.00;4.55;;;;;;;3.45;73.39;94429.16;5081282;28;20040;-66
2024/01/06 05:19:20;;;;;;;10.40;4.75;;;;;;;3.45;73.15;94413.75;5067698;28;20044;-66
2024/01/06 05:21:47;;;;;;;7.20;4.68;;;;;;;3.54;72.70;94428.63;5084818;28;20043;-66
2024/01/06 05:24:12;;;;;;;10.00;6.78;;;;;;;3.55;73.40;94414.84;5088213;28;20036;-66
2024/01/06 05:26:38;;;;;;;7.68;4.85;;;;;;;3.62;73.13;94423.00;5087593;28;20043;-66
2024/01/06 05:29:03;;;;;;;7.47;4.47;;;;;;;3.61;73.06;94412.81;5090321;28;20044;-66
2024/01/06 05:31:28;;;;;;;7.90;4.68;;;;;;;3.40;73.37;94400.41;5089198;28;20474;-67
2024/01/06 05:33:54;;;;;;;10.15;5.88;;;;;;;3.24;73.71;94384.28;5072185;28;20509;-65
2024/01/06 05:36:20;;;;;;;7.93;5.00;;;;;;;3.41;73.36;94393.50;5087956;28;20032;-66
2024/01/06 05:38:45;;;;;;;10.55;5.15;;;;;;;3.26;73.89;94393.53;5091608;28;20054;-66
2024/01/06 05:41:11;;;;;;;8.25;4.78;;;;;;;3.33;74.00;94397.38;5070640;28;20036;-65
2024/01/06 05:43:36;;;;;;;9.35;4.78;;;;;;;3.34;73.68;94381.06;5084177;28;20032;-65
2024/01/06 05:46:01;;;;;;;7.55;4.70;;;;;;;3.37;73.86;94392.84;5087563;28;20508;-65
2024/01/06 05:48:27;;;;;;;8.18;5.03;;;;;;;3.37;73.85;94387.72;5090449;28;20036;-66
2024/01/06 05:50:52;;;;;;;7.63;4.85;;;;;;;3.38;73.84;94391.97;5088593;28;20047;-66
2024/01/06 05:53:18;;;;;;;8.77;5.07;;;;;;;3.33;74.10;94383.72;5089540;28;20050;-65
2024/01/06 05:55:43;;;;;;;7.63;4.30;;;;;;;3.33;74.04;94386.28;5085383;28;20051;-65
2024/01/06 05:58:09;;;;;;;6.80;4.13;;;;;;;3.35;73.91;94395.53;5090067;28;20040;-66
2024/01/06 06:00:34;;;;;;;6.68;4.25;;;;;;;3.28;74.26;94383.16;5089979;28;20443;-66
2024/01/06 06:03:00;;;;;;;7.13;4.28;;;;;;;3.33;74.38;94387.09;5090590;28;20024;-66
2024/01/06 06:05:26;;;;;;;6.68;4.10;;;;;;;3.18;74.16;94382.91;5089850;28;20024;-66
2024/01/06 06:07:52;;;;;;;6.93;3.88;;;;;;;3.34;73.80;94381.06;5088497;28;20036;-66
2024/01/06 06:10:18;;;;;;;6.63;3.95;;;;;;;3.36;74.16;94383.53;5070187;28;20032;-65
2024/01/06 06:12:44;;;;;;;6.63;3.83;;;;;;;3.31;74.32;94373.53;5084575;28;20152;-66
2024/01/06 06:15:09;;;;;;;8.65;3.70;;;;;;;3.39;73.95;94374.81;5064186;28;20021;-66
2024/01/06 06:17:35;;;;;;;5.50;3.58;;;;;;;3.53;73.36;94379.91;5087437;28;20035;-66
2024/01/06 06:20:01;;;;;;;6.43;3.92;;;;;;;3.48;73.73;94381.94;5081301;28;20020;-67
2024/01/06 06:22:29;;;;;;;7.90;3.47;;;;;;;3.55;73.43;94375.50;5083549;28;20024;-67
2024/01/06 06:24:58;;;;;;;9.32;3.97;;;;;;;3.50;73.91;94385.22;5070370;28;20028;-66
2024/01/06 06:27:24;;;;;;;8.05;4.07;;;;;;;3.55;73.40;94376.31;5087190;28;20028;-66
2024/01/06 06:29:49;;;;;;;8.02;3.70;;;;;;;3.29;73.55;94351.44;5089426;28;20578;-66
2024/01/06 06:32:15;;;;;;;7.55;4.97;;;;;;;3.60;73.39;94390.63;5069665;28;20063;-66
2024/01/06 06:34:40;;;;;;;9.75;4.65;;;;;;;3.65;72.93;94384.31;5088335;28;20426;-67
2024/01/06 06:37:05;;;;;;;9.95;4.55;;;;;;;3.70;73.28;94391.69;5093112;28;20035;-66
2024/01/06 06:39:32;;;;;;;6.43;3.95;;;;;;;3.65;73.16;94371.44;5092168;28;20023;-66
2024/01/06 06:41:58;;;;;;;7.40;4.35;;;;;;;3.75;73.34;94405.91;5091076;28;20035;-67
2024/01/06 06:44:23;;;;;;;6.78;4.18;;;;;;;3.84;72.72;94381.38;5091538;28;20021;-68
2024/01/06 06:46:49;;;;;;;5.47;3.30;;;;;;;3.74;72.85;94390.59;5054955;28;20047;-66
2024/01/06 06:49:14;;;;;;;6.00;3.67;;;;;;;3.84;73.08;94383.94;5074338;28;20042;-66
2024/01/06 06:51:46;;;;;;;7.45;3.65;;;;;;;3.79;72.43;94371.41;5090069;28;20088;-66
2024/01/06 06:54:12;;;;;;;9.45;4.25;;;;;;;3.84;72.70;94377.97;5091174;28;20498;-66
2024/01/06 06:56:38;;;;;;;10.25;3.92;;;;;;;3.83;72.26;94377.16;5091690;28;20469;-65
2024/01/06 06:59:03;;;;;;;5.50;3.60;;;;;;;3.97;72.72;94387.38;5090973;28;20075;-65
2024/01/06 07:01:28;;;;;;;6.43;3.50;;;;;;;4.07;72.59;94391.94;5090217;28;20078;-66
2024/01/06 07:03:54;;;;;;;6.55;3.65;;;;;;;4.06;72.08;94390.28;5091559;28;20043;-66
2024/01/06 07:06:19;;;;;;;6.15;3.50;;;;;;;4.14;71.30;94383.72;5070082;28;20557;-65
2024/01/06 07:08:45;;;;;;;6.65;3.47;;;;;;;4.14;71.32;94385.50;5069425;28;20036;-67
2024/01/06 07:11:11;;;;;;;9.77;4.00;;;;;;;4.18;70.91;94374.91;5083768;28;20020;-66
2024/01/06 07:13:37;;;;;;;7.47;3.65;;;;;;;4.20;71.15;94378.19;5055866;28;20442;-65
2024/01/06 07:16:02;;;;;;;7.65;3.60;;;;;;;4.25;70.94;94383.03;5059414;28;20021;-65
2024/01/06 07:18:28;;;;;;;7.30;3.72;;;;;;;4.23;70.88;94384.88;5068954;28;20056;-66
2024/01/06 07:20:53;;;;;;;6.68;3.70;;;;;;;4.15;71.05;94379.41;5077300;28;20486;-65
2024/01/06 07:23:19;;;;;;;6.65;3.70;;;;;;;4.10;70.83;94368.63;5092529;28;20425;-66
2024/01/06 07:25:44;;;;;;;5.82;3.00;;;;;;;4.26;71.13;94389.81;5091053;28;20024;-65
2024/01/06 07:28:10;;;;;;;5.13;3.25;;;;;;;4.20;70.98;94379.94;5091146;28;20040;-66
2024/01/06 07:30:35;;;;;;;5.70;3.50;;;;;;;4.20;70.80;94369.66;5090590;28;20156;-66
2024/01/06 07:33:00;;;;;;;4.90;3.20;;;;;;;4.06;70.56;94347.41;5099827;28;20412;-65
2024/01/06 07:35:26;;;;;;;6.60;4.05;;;;;;;4.17;70.60;94370.69;5111354;28;20507;-65
2024/01/06 07:37:52;;;;;;;6.45;4.10;;;;;;;4.30;71.07;94373.28;5070553;28;20039;-66
2024/01/06 07:40:18;;;;;;;5.93;3.50;;;;;;;4.33;70.58;94380.81;5054339;28;20032;-66
2024/01/06 07:42:44;;;;;;;6.32;3.53;;;;;;;4.18;70.59;94366.34;5071764;28;20025;-65
2024/01/06 07:45:09;;;;;;;4.13;3.20;;;;;;;4.30;71.01;94382.75;5070559;28;20028;-65
2024/01/06 07:47:35;;;;;;;5.07;3.50;;;;;;;4.36;70.97;94380.59;5085309;28;20040;-67
2024/01/06 07:50:00;;;;;;;8.38;4.20;;;;;;;4.45;70.48;94374.03;5092093;28;20028;-66
2024/01/06 07:52:26;;;;;;;7.63;4.43;;;;;;;4.40;70.47;94368.34;5097320;28;20497;-66
2024/01/06 07:54:51;;;;;;;6.10;4.13;;;;;;;4.52;70.29;94362.41;5092155;28;20512;-66
2024/01/06 07:57:16;;;;;;;4.53;2.92;;;;;;;4.56;70.40;94370.75;5090047;28;20056;-66
2024/01/06 07:59:42;;;;;;;6.45;3.60;;;;;;;4.60;69.93;94361.91;5070430;28;20032;-67
2024/01/06 08:02:08;;;;;;;5.13;3.25;;;;;;;4.75;70.00;94373.75;5077001;28;20383;-68
2024/01/06 08:04:34;;;;;;;6.70;3.38;;;;;;;4.83;70.07;94378.38;5073647;28;20046;-67
2024/01/06 08:06:59;;;;;;;5.43;3.28;;;;;;;4.54;69.77;94346.88;5073632;28;20494;-67
2024/01/06 08:09:25;;;;;;;6.20;3.45;;;;;;;4.60;70.13;94343.91;5104768;28;20024;-67
2024/01/06 08:11:50;;;;;;;6.32;3.75;;;;;;;4.86;70.10;94389.28;5110195;28;20023;-67
2024/01/06 08:14:17;;;;;;;5.63;3.15;;;;;;;4.88;70.11;94366.03;5053303;28;20017;-66
2024/01/06 08:16:43;;;;;;;7.43;3.65;;;;;;;4.80;69.71;94365.72;5075768;28;20024;-67
2024/01/06 08:19:08;;;;;;;10.23;3.80;;;;;;;4.95;70.26;94371.59;5088901;28;20130;-66
2024/01/06 08:21:34;;;;;;;6.10;3.47;;;;;;;4.80;70.08;94363.97;5088496;28;20027;-67
2024/01/06 08:24:00;;;;;;;5.85;3.25;;;;;;;4.80;69.89;94337.41;5089419;28;20394;-68
2024/01/06 08:26:25;;;;;;;5.18;3.15;;;;;;;5.10;69.40;94361.06;5072780;28;20036;-67
2024/01/06 08:28:51;;;;;;;6.38;3.28;;;;;;;5.30;69.15;94382.88;5089051;28;20126;-67
2024/01/06 08:31:16;;;;;;;5.80;3.40;;;;;;;5.16;69.13;94367.56;5084825;28;20039;-67
2024/01/06 08:33:42;;;;;;;7.35;3.30;;;;;;;5.41;68.35;94384.72;5080977;28;20116;-67
2024/01/06 08:36:08;;;;;;;7.68;3.40;;;;;;;5.47;68.09;94373.97;5083567;28;20028;-67
2024/01/06 08:38:33;;;;;;;24.20;12.82;;;;;;;5.40;69.07;94377.91;5078441;28;20093;-67
2024/01/06 08:40:58;;;;;;;34.20;17.95;;;;;;;5.57;69.08;94376.72;5089866;28;20036;-67
2024/01/06 08:43:24;;;;;;;30.60;17.52;;;;;;;5.80;68.93;94383.69;5067792;28;20471;-66
2024/01/06 08:45:50;;;;;;;30.98;16.67;;;;;;;5.77;69.35;94380.50;5052372;28;20028;-67
2024/01/06 08:48:18;;;;;;;37.47;20.30;;;;;;;5.41;70.64;94369.25;5080147;28;20050;-67
2024/01/06 08:50:45;;;;;;;37.95;22.77;;;;;;;5.42;71.14;94378.63;5090968;28;20527;-67
2024/01/06 08:53:10;;;;;;;56.20;31.77;;;;;;;5.51;71.66;94375.41;5077399;28;20052;-67
2024/01/06 08:55:36;;;;;;;52.05;28.60;;;;;;;5.48;71.55;94359.34;5072953;28;20040;-66
2024/01/06 08:58:01;;;;;;;45.83;26.20;;;;;;;5.63;71.23;94373.75;5070267;28;20036;-66
2024/01/06 09:00:26;;;;;;;38.78;25.10;;;;;;;5.51;72.00;94366.84;5090041;28;20039;-67
2024/01/06 09:02:52;;;;;;;58.83;30.95;;;;;;;5.44;72.44;94363.06;5090311;28;20024;-66
2024/01/06 09:05:18;;;;;;;123.30;50.17;;;;;;;5.48;72.73;94360.16;5090585;28;20454;-67
2024/01/06 09:07:44;;;;;;;99.60;44.88;;;;;;;5.40;72.22;94353.91;5089370;28;20028;-68
2024/01/06 09:10:09;;;;;;;50.15;26.20;;;;;;;5.60;71.48;94345.63;5088150;28;20462;-67
2024/01/06 09:12:35;;;;;;;35.47;20.77;;;;;;;6.04;70.04;94337.31;5085199;28;20127;-67
2024/01/06 09:15:00;;;;;;;30.30;19.48;;;;;;;5.70;70.29;94323.38;5090105;28;20047;-69
2024/01/06 09:17:26;;;;;;;33.30;19.83;;;;;;;5.78;70.23;94346.03;5088958;28;20490;-68
2024/01/06 09:19:53;;;;;;;42.30;21.35;;;;;;;5.79;70.46;94337.38;5079882;28;20502;-69
2024/01/06 09:22:19;;;;;;;33.35;20.10;;;;;;;5.60;71.02;94335.31;5068885;28;20032;-69
2024/01/06 09:24:44;;;;;;;31.83;20.42;;;;;;;5.50;71.58;94326.56;5091517;28;20055;-69
2024/01/06 09:27:10;;;;;;;44.75;28.45;;;;;;;5.54;71.79;94327.97;5055751;28;20490;-68
2024/01/06 09:29:35;;;;;;;31.23;21.83;;;;;;;5.51;72.17;94326.44;5079208;28;20039;-69
2024/01/06 09:32:02;;;;;;;36.80;21.83;;;;;;;5.36;71.91;94297.44;5089274;28;20481;-69
2024/01/06 09:34:27;;;;;;;51.55;28.75;;;;;;;5.47;72.63;94308.75;5070385;28;20029;-69
2024/01/06 09:36:53;;;;;;;39.67;22.75;;;;;;;5.67;71.86;94312.50;5090458;28;20044;-69
2024/01/06 09:39:18;;;;;;;43.42;24.75;;;;;;;5.51;73.43;94302.44;5069192;28;20036;-69
2024/01/06 09:41:43;;;;;;;65.13;35.70;;;;;;;5.54;72.43;94297.91;5074345;28;20379;-68
2024/01/06 09:44:09;;;;;;;41.35;24.90;;;;;;;5.80;71.63;94303.75;5052499;28;20036;-67
2024/01/06 09:46:35;;;;;;;33.03;21.20;;;;;;;6.14;70.36;94282.47;5085094;28;20024;-68
2024/01/06 09:49:01;;;;;;;36.30;21.70;;;;;;;6.28;70.13;94292.59;5089237;28;20032;-68
2024/01/06 09:51:27;;;;;;;32.08;21.40;;;;;;;6.13;71.08;94289.38;5078956;28;20468;-68
2024/01/06 09:53:59;;;;;;;31.52;19.83;;;;;;;5.95;71.28;94285.56;5069029;28;20028;-67
2024/01/06 09:56:26;;;;;;;29.15;18.33;;;;;;;6.49;69.96;94285.84;5064327;28;20053;-68
2024/01/06 09:58:51;;;;;;;24.38;16.17;;;;;;;6.29;69.95;94272.75;5085293;28;20029;-67
2024/01/06 10:01:18;;;;;;;28.13;17.25;;;;;;;6.25;70.53;94282.50;5060858;28;20509;-66
2024/01/06 10:03:43;;;;;;;30.35;21.02;;;;;;;6.13;70.54;94278.22;5052168;28;20067;-67
2024/01/06 10:06:09;;;;;;;27.90;15.45;;;;;;;6.01;70.60;94274.81;5058422;28;20047;-67
2024/01/06 10:08:35;;;;;;;18.20;14.00;;;;;;;6.11;70.68;94262.88;5072298;28;20040;-67
2024/01/06 10:11:00;;;;;;;20.58;15.60;;;;;;;6.26;70.25;94254.00;5076547;28;20028;-66
2024/01/06 10:13:27;;;;;;;21.85;14.20;;;;;;;6.15;71.08;94261.72;5093998;28;20028;-67
2024/01/06 10:15:52;;;;;;;28.40;19.00;;;;;;;5.88;72.32;94212.16;5075787;28;20539;-66
2024/01/06 10:18:18;;;;;;;22.45;15.10;;;;;;;6.18;72.91;94245.19;5075756;28;20040;-66
2024/01/06 10:20:45;;;;;;;27.10;16.60;;;;;;;6.02;73.57;94246.34;5074528;28;20273;-66
2024/01/06 10:23:10;;;;;;;31.90;19.90;;;;;;;5.94;73.88;94222.88;5075472;28;20032;-66
2024/01/06 10:25:36;;;;;;;24.40;17.33;;;;;;;6.03;73.35;94247.16;5093737;28;20024;-66
2024/01/06 10:28:03;;;;;;;35.70;19.23;;;;;;;6.33;71.86;94235.50;5092293;28;20035;-66
2024/01/06 10:30:28;;;;;;;29.70;18.77;;;;;;;6.01;73.05;94225.81;5093747;28;20054;-66
2024/01/06 10:32:53;;;;;;;31.52;18.80;;;;;;;6.24;72.28;94237.84;5075324;28;20494;-66
2024/01/06 10:35:19;;;;;;;28.27;18.40;;;;;;;6.15;72.92;94228.19;5075337;28;20039;-67
2024/01/06 10:37:45;;;;;;;28.98;18.58;;;;;;;6.28;72.09;94230.69;5080739;28;20406;-66
2024/01/06 10:40:18;;;;;;;25.33;16.40;;;;;;;6.35;71.88;94220.69;5055137;28;20029;-66
2024/01/06 10:42:44;;;;;;;31.38;18.80;;;;;;;6.17;71.67;94213.41;5081399;28;20509;-67
2024/01/06 10:45:10;;;;;;;27.80;15.70;;;;;;;6.42;71.05;94222.72;5092049;28;20031;-67
2024/01/06 10:47:36;;;;;;;30.25;18.92;;;;;;;6.59;70.36;94212.88;5091721;28;20031;-67
2024/01/06 10:50:02;;;;;;;21.50;15.13;;;;;;;6.69;69.43;94213.81;5075219;28;20081;-67
2024/01/06 10:52:27;;;;;;;23.50;14.38;;;;;;;6.41;69.54;94199.63;5091829;28;20089;-67
2024/01/06 10:54:54;;;;;;;29.20;15.75;;;;;;;6.24;70.25;94206.88;5091827;28;20028;-66
2024/01/06 10:57:19;;;;;;;36.33;20.58;;;;;;;6.20;70.12;94192.56;5074873;28;20032;-66
2024/01/06 10:59:45;;;;;;;19.88;14.52;;;;;;;6.46;69.57;94187.16;5066176;28;20031;-66
2024/01/06 11:02:11;;;;;;;21.10;14.35;;;;;;;6.63;68.71;94186.72;5072278;28;20040;-67
2024/01/06 11:04:36;;;;;;;17.85;13.10;;;;;;;6.94;68.32;94186.91;5068840;28;20086;-67
2024/01/06 11:07:01;;;;;;;22.23;13.63;;;;;;;6.86;67.17;94166.03;5054620;28;20043;-67
2024/01/06 11:09:31;;;;;;;17.77;11.55;;;;;;;6.69;68.74;94180.25;5088129;28;20077;-67
2024/01/06 11:11:57;;;;;;;20.45;12.90;;;;;;;6.69;68.63;94173.31;5090641;28;20028;-66
2024/01/06 11:14:27;;;;;;;20.05;13.38;;;;;;;6.70;68.56;94171.56;5064770;28;20502;-66
2024/01/06 11:16:53;;;;;;;27.50;20.48;;;;;;;6.81;68.48;94173.31;5087494;28;20618;-66
2024/01/06 11:19:33;;;;;;;20.52;14.50;;;;;;;6.95;67.69;94167.88;5053597;28;20123;-67
2024/01/06 11:22:18;;;;;;;18.30;11.90;;;;;;;7.00;68.19;94139.13;5086911;28;20072;-68
2024/01/06 11:24:47;;;;;;;20.33;11.98;;;;;;;6.75;68.35;94150.56;5086238;28;20078;-68
2024/01/06 11:27:17;;;;;;;18.73;11.32;;;;;;;6.60;69.00;94142.22;5069243;28;20032;-67